Time;durP1;ratioP1;P1;durP2;ratioP2;P2;SDS_P1;SDS_P2;PMS_P1;PMS_P2;Temp;Humidity;BMP_temperature;BMP_pressure;BME280_temperature;BME280_humidity;BME280_pressure;Samples;Min_cycle;Max_cycle;Signal;HPM_P1;HPM_P2
2024/02/14 00:00:24;;;;;;;2.30;2.00;;;;;;;;;;5027498;28;20226;-77
2024/02/14 00:02:52;;;;;;;1.75;1.65;;;;;;;;;;5018726;28;20253;-77
2024/02/14 00:05:19;;;;;;;2.00;1.90;;;;;;;;;;5015617;28;20298;-78
2024/02/14 00:07:47;;;;;;;2.00;1.90;;;;;;;;;;5016156;28;20317;-78
2024/02/14 00:10:14;;;;;;;1.70;1.60;;;;;;;;;;5015736;28;20197;-77
2024/02/14 00:12:42;;;;;;;2.53;2.15;;;;;;;;;;5022584;28;20206;-78
2024/02/14 00:15:10;;;;;;;3.15;2.47;;;;;;;;;;5023212;28;20734;-78
2024/02/14 00:17:39;;;;;;;2.80;2.60;;;;;;;;;;5030527;28;20304;-76
2024/02/14 00:20:11;;;;;;;4.05;3.03;;;;;;;;;;5026985;28;20226;-76
2024/02/14 00:22:39;;;;;;;3.45;2.80;;;;;;;;;;5020440;28;20199;-77
2024/02/14 00:25:07;;;;;;;3.55;2.78;;;;;;;;;;5023684;28;20683;-78
2024/02/14 00:27:34;;;;;;;3.50;2.78;;;;;;;;;;5023584;28;20241;-77
2024/02/14 00:30:03;;;;;;;2.47;2.28;;;;;;;;;;5023428;28;20208;-77
2024/02/14 00:32:31;;;;;;;3.40;2.97;;;;;;;;;;5023335;28;20211;-77
2024/02/14 00:35:00;;;;;;;6.43;2.50;;;;;;;;;;5016464;28;20203;-77
2024/02/14 00:37:28;;;;;;;2.20;2.05;;;;;;;;;;5022177;28;20318;-76
2024/02/14 00:39:57;;;;;;;2.83;2.00;;;;;;;;;;5015873;28;20227;-78
2024/02/14 00:42:25;;;;;;;2.92;2.53;;;;;;;;;;5006964;28;20203;-76
2024/02/14 00:44:52;;;;;;;3.00;2.28;;;;;;;;;;5014683;28;20207;-76
2024/02/14 00:47:20;;;;;;;3.08;2.38;;;;;;;;;;5024563;28;20230;-79
2024/02/14 00:49:47;;;;;;;2.05;1.90;;;;;;;;;;5024417;28;20203;-76
2024/02/14 00:52:16;;;;;;;2.60;2.40;;;;;;;;;;5020362;28;20206;-76
2024/02/14 00:54:44;;;;;;;2.30;2.10;;;;;;;;;;5019344;28;20668;-76
2024/02/14 00:57:12;;;;;;;2.63;2.42;;;;;;;;;;5030317;23;20602;-79
2024/02/14 00:59:40;;;;;;;2.20;2.00;;;;;;;;;;5015526;28;20293;-79
2024/02/14 01:02:07;;;;;;;2.28;2.08;;;;;;;;;;5016044;28;20213;-79
2024/02/14 01:04:36;;;;;;;1.73;1.63;;;;;;;;;;5016697;28;20581;-79
2024/02/14 01:07:03;;;;;;;2.22;1.70;;;;;;;;;;5017460;28;20226;-79
2024/02/14 01:09:32;;;;;;;3.20;2.15;;;;;;;;;;5018048;28;20209;-79
2024/02/14 01:12:01;;;;;;;1.73;1.55;;;;;;;;;;5017442;28;20203;-79
2024/02/14 01:14:28;;;;;;;2.75;2.08;;;;;;;;;;5017078;28;20294;-78
2024/02/14 01:16:56;;;;;;;1.83;1.60;;;;;;;;;;5017263;28;20769;-79
2024/02/14 01:19:23;;;;;;;2.35;1.80;;;;;;;;;;5017394;28;20265;-79
2024/02/14 01:21:51;;;;;;;1.95;1.70;;;;;;;;;;5017525;28;20669;-79
2024/02/14 01:24:18;;;;;;;4.68;2.22;;;;;;;;;;5019793;28;20198;-79
2024/02/14 01:26:47;;;;;;;2.65;1.52;;;;;;;;;;5021720;28;20229;-78
2024/02/14 01:29:16;;;;;;;1.70;1.60;;;;;;;;;;5021016;28;20199;-78
2024/02/14 01:31:44;;;;;;;3.53;2.00;;;;;;;;;;5020969;28;20203;-78
2024/02/14 01:34:11;;;;;;;1.58;1.48;;;;;;;;;;5021254;28;20213;-79
2024/02/14 01:36:41;;;;;;;2.13;1.50;;;;;;;;;;5020939;28;20261;-78
2024/02/14 01:39:10;;;;;;;3.45;1.77;;;;;;;;;;5021169;28;20213;-78
2024/02/14 01:41:38;;;;;;;2.50;1.95;;;;;;;;;;5021078;28;20199;-79
2024/02/14 01:44:07;;;;;;;2.15;1.95;;;;;;;;;;5020803;28;20210;-79
2024/02/14 01:46:34;;;;;;;1.58;1.45;;;;;;;;;;5020988;28;20604;-79
2024/02/14 01:49:02;;;;;;;1.60;1.40;;;;;;;;;;5020749;28;20725;-79
2024/02/14 01:51:31;;;;;;;6.68;1.80;;;;;;;;;;5021253;28;20230;-78
2024/02/14 01:53:59;;;;;;;1.73;1.63;;;;;;;;;;5021634;28;20198;-79
2024/02/14 01:56:27;;;;;;;1.73;1.63;;;;;;;;;;5020213;28;20202;-79
2024/02/14 01:58:54;;;;;;;1.70;1.60;;;;;;;;;;5020907;28;20194;-79
2024/02/14 02:01:24;;;;;;;1.55;1.40;;;;;;;;;;5020191;28;20225;-79
2024/02/14 02:03:51;;;;;;;1.40;1.30;;;;;;;;;;5019446;28;20210;-79
2024/02/14 02:06:19;;;;;;;3.05;1.77;;;;;;;;;;5019876;28;20213;-79
2024/02/14 02:08:47;;;;;;;1.30;1.20;;;;;;;;;;5020235;28;20209;-78
2024/02/14 02:11:14;;;;;;;2.50;1.67;;;;;;;;;;5019944;28;20207;-79
2024/02/14 02:13:42;;;;;;;2.47;1.63;;;;;;;;;;5019505;28;20215;-79
2024/02/14 02:16:10;;;;;;;2.08;1.60;;;;;;;;;;5020447;28;20227;-78
2024/02/14 02:18:38;;;;;;;2.58;2.00;;;;;;;;;;5020115;28;20721;-78
2024/02/14 02:21:06;;;;;;;2.08;1.40;;;;;;;;;;5018903;28;20222;-79
2024/02/14 02:23:35;;;;;;;2.65;2.45;;;;;;;;;;5019805;28;20199;-79
2024/02/14 02:26:03;;;;;;;2.75;1.98;;;;;;;;;;5019529;28;20214;-79
2024/02/14 02:28:30;;;;;;;1.50;1.40;;;;;;;;;;5019883;28;20627;-79
2024/02/14 02:30:58;;;;;;;2.63;2.13;;;;;;;;;;5019723;28;20199;-79
2024/02/14 02:33:26;;;;;;;2.05;1.50;;;;;;;;;;5020171;28;20207;-78
2024/02/14 02:35:53;;;;;;;1.55;1.45;;;;;;;;;;5019952;28;20203;-79
2024/02/14 02:38:21;;;;;;;2.00;1.52;;;;;;;;;;5019758;28;20571;-79
2024/02/14 02:40:50;;;;;;;4.22;1.77;;;;;;;;;;5019589;28;20227;-79
2024/02/14 02:43:18;;;;;;;1.77;1.65;;;;;;;;;;5019033;28;20274;-79
2024/02/14 02:45:46;;;;;;;2.75;1.80;;;;;;;;;;5019638;28;20660;-79
2024/02/14 02:48:13;;;;;;;1.85;1.75;;;;;;;;;;5019689;28;20286;-79
2024/02/14 02:50:42;;;;;;;1.70;1.60;;;;;;;;;;5019830;28;20665;-78
2024/02/14 02:53:09;;;;;;;5.32;2.38;;;;;;;;;;5019555;28;20584;-79
2024/02/14 02:55:37;;;;;;;1.85;1.38;;;;;;;;;;5019988;28;20213;-78
2024/02/14 02:58:06;;;;;;;1.65;1.42;;;;;;;;;;5019570;28;20234;-79
2024/02/14 03:00:34;;;;;;;2.20;1.55;;;;;;;;;;5019468;28;20229;-79
2024/02/14 03:03:02;;;;;;;2.17;1.98;;;;;;;;;;5018956;28;20203;-79
2024/02/14 03:05:31;;;;;;;2.05;1.73;;;;;;;;;;5018573;28;20253;-79
2024/02/14 03:07:58;;;;;;;1.92;1.70;;;;;;;;;;5018886;28;20310;-79
2024/02/14 03:10:26;;;;;;;1.98;1.70;;;;;;;;;;5019488;28;20209;-79
2024/02/14 03:12:54;;;;;;;1.88;1.60;;;;;;;;;;5019428;28;20585;-79
2024/02/14 03:15:25;;;;;;;1.65;1.50;;;;;;;;;;5018772;28;20235;-79
2024/02/14 03:17:53;;;;;;;1.98;1.83;;;;;;;;;;5017626;28;20249;-77
2024/02/14 03:20:20;;;;;;;1.50;1.40;;;;;;;;;;5018877;28;20230;-79
2024/02/14 03:22:48;;;;;;;1.60;1.50;;;;;;;;;;5019071;28;20203;-78
2024/02/14 03:25:19;;;;;;;2.20;2.00;;;;;;;;;;5019484;28;20248;-79
2024/02/14 03:27:47;;;;;;;2.60;1.77;;;;;;;;;;5018430;28;20233;-80
2024/02/14 03:30:16;;;;;;;3.10;1.70;;;;;;;;;;5018782;28;20222;-79
2024/02/14 03:32:44;;;;;;;1.98;1.70;;;;;;;;;;5017720;28;20210;-79
2024/02/14 03:35:13;;;;;;;4.50;1.92;;;;;;;;;;5019297;28;20294;-78
2024/02/14 03:37:41;;;;;;;2.30;2.00;;;;;;;;;;5018822;28;20233;-79
2024/02/14 03:40:11;;;;;;;2.63;2.22;;;;;;;;;;5016867;28;20211;-79
2024/02/14 03:42:39;;;;;;;1.65;1.50;;;;;;;;;;5018255;28;20195;-80
2024/02/14 03:45:08;;;;;;;1.65;1.30;;;;;;;;;;5018559;28;20211;-79
2024/02/14 03:47:39;;;;;;;1.52;1.42;;;;;;;;;;5017626;28;20654;-77
2024/02/14 03:50:09;;;;;;;1.73;1.30;;;;;;;;;;5017860;28;20199;-80
2024/02/14 03:52:37;;;;;;;1.48;1.38;;;;;;;;;;5017161;28;20241;-80
2024/02/14 03:55:05;;;;;;;2.17;1.85;;;;;;;;;;5018718;28;20277;-79
2024/02/14 03:57:35;;;;;;;1.98;1.50;;;;;;;;;;5018411;28;20226;-79
2024/02/14 04:00:02;;;;;;;1.67;1.42;;;;;;;;;;5018870;28;20577;-79
2024/02/14 04:02:31;;;;;;;2.10;1.58;;;;;;;;;;5017556;28;20647;-78
2024/02/14 04:04:58;;;;;;;1.67;1.58;;;;;;;;;;5018453;28;20207;-79
2024/02/14 04:07:27;;;;;;;2.28;1.77;;;;;;;;;;5018384;28;20290;-79
2024/02/14 04:09:55;;;;;;;3.05;1.58;;;;;;;;;;5018702;28;20206;-79
2024/02/14 04:12:22;;;;;;;2.45;2.25;;;;;;;;;;5018308;28;20291;-80
2024/02/14 04:14:50;;;;;;;3.67;1.83;;;;;;;;;;5018055;28;20203;-79
2024/02/14 04:17:17;;;;;;;2.00;1.80;;;;;;;;;;5017697;28;20237;-79
2024/02/14 04:19:45;;;;;;;2.92;2.22;;;;;;;;;;5017791;28;20207;-78
2024/02/14 04:22:12;;;;;;;3.63;1.60;;;;;;;;;;5018070;28;20233;-79
2024/02/14 04:24:41;;;;;;;1.80;1.70;;;;;;;;;;5018326;28;20566;-78
2024/02/14 04:27:09;;;;;;;3.47;2.00;;;;;;;;;;5017535;28;20226;-79
2024/02/14 04:29:36;;;;;;;1.98;1.60;;;;;;;;;;5018317;28;20290;-79
2024/02/14 04:32:04;;;;;;;1.77;1.67;;;;;;;;;;5017716;28;20209;-80
2024/02/14 04:34:32;;;;;;;1.63;1.52;;;;;;;;;;5017594;28;20195;-79
2024/02/14 04:36:59;;;;;;;1.80;1.70;;;;;;;;;;5018106;28;20309;-79
2024/02/14 04:39:27;;;;;;;1.63;1.52;;;;;;;;;;5018693;28;20746;-78
2024/02/14 04:41:56;;;;;;;2.92;2.03;;;;;;;;;;5017633;28;20317;-79
2024/02/14 04:44:24;;;;;;;1.98;1.65;;;;;;;;;;5018526;28;20203;-78
2024/02/14 04:46:52;;;;;;;2.40;2.20;;;;;;;;;;5017798;28;20234;-79
2024/02/14 04:49:19;;;;;;;2.08;1.75;;;;;;;;;;5017629;28;20224;-78
2024/02/14 04:51:47;;;;;;;2.17;1.83;;;;;;;;;;5017291;28;20203;-78
2024/02/14 04:54:16;;;;;;;2.20;2.00;;;;;;;;;;5017416;28;20807;-79
2024/02/14 04:56:45;;;;;;;2.25;2.00;;;;;;;;;;5016736;28;20337;-78
2024/02/14 04:59:14;;;;;;;2.15;1.80;;;;;;;;;;5020054;28;20235;-80
2024/02/14 05:01:41;;;;;;;2.45;1.90;;;;;;;;;;5021934;28;20221;-79
2024/02/14 05:04:09;;;;;;;2.53;1.98;;;;;;;;;;5021910;28;20210;-79
2024/02/14 05:06:38;;;;;;;1.90;1.70;;;;;;;;;;5021137;28;20250;-79
2024/02/14 05:09:05;;;;;;;3.53;2.30;;;;;;;;;;5021524;28;20210;-79
2024/02/14 05:11:33;;;;;;;2.50;1.75;;;;;;;;;;5020147;28;20640;-80
2024/02/14 05:14:01;;;;;;;2.95;1.92;;;;;;;;;;5019745;28;20209;-80
2024/02/14 05:16:30;;;;;;;2.42;2.22;;;;;;;;;;5020402;28;20217;-79
2024/02/14 05:18:57;;;;;;;2.17;1.95;;;;;;;;;;5019592;28;20290;-80
2024/02/14 05:21:25;;;;;;;2.80;1.80;;;;;;;;;;5020066;28;20290;-80
2024/02/14 05:23:52;;;;;;;2.45;1.88;;;;;;;;;;5020663;28;20207;-79
2024/02/14 05:26:19;;;;;;;1.90;1.80;;;;;;;;;;5020840;28;20210;-79
2024/02/14 05:28:47;;;;;;;1.67;1.58;;;;;;;;;;5020018;28;20649;-80
2024/02/14 05:31:15;;;;;;;1.80;1.30;;;;;;;;;;5020651;28;20208;-79
2024/02/14 05:33:44;;;;;;;2.80;2.05;;;;;;;;;;5020380;28;20195;-78
2024/02/14 05:36:11;;;;;;;2.60;2.25;;;;;;;;;;5020072;28;20203;-79
2024/02/14 05:38:38;;;;;;;2.55;1.90;;;;;;;;;;5020637;28;20553;-78
2024/02/14 05:41:07;;;;;;;3.65;2.38;;;;;;;;;;5020486;28;20203;-79
2024/02/14 05:43:35;;;;;;;3.13;2.33;;;;;;;;;;5021639;28;20258;-78
2024/02/14 05:46:02;;;;;;;2.08;1.95;;;;;;;;;;5020750;28;20684;-78
2024/02/14 05:48:30;;;;;;;2.50;2.22;;;;;;;;;;5020271;28;20292;-79
2024/02/14 05:50:58;;;;;;;3.95;2.22;;;;;;;;;;5020379;28;20207;-80
2024/02/14 05:53:26;;;;;;;3.75;2.10;;;;;;;;;;5020358;28;20289;-78
2024/02/14 05:55:53;;;;;;;2.78;2.28;;;;;;;;;;5020744;28;20202;-79
2024/02/14 05:58:21;;;;;;;2.50;2.00;;;;;;;;;;5019859;28;20226;-78
2024/02/14 06:00:48;;;;;;;4.00;2.13;;;;;;;;;;5020617;28;20207;-78
2024/02/14 06:03:16;;;;;;;3.80;2.00;;;;;;;;;;5020701;28;20235;-79
2024/02/14 06:05:43;;;;;;;1.88;1.77;;;;;;;;;;5020593;28;20217;-79
2024/02/14 06:08:12;;;;;;;2.72;2.00;;;;;;;;;;5019899;28;20233;-79
2024/02/14 06:10:39;;;;;;;2.00;1.80;;;;;;;;;;5019298;28;20217;-78
2024/02/14 06:13:07;;;;;;;3.13;2.20;;;;;;;;;;5020368;28;20260;-79
2024/02/14 06:15:34;;;;;;;1.95;1.60;;;;;;;;;;5019236;28;20214;-79
2024/02/14 06:18:02;;;;;;;3.00;1.92;;;;;;;;;;5020622;28;20218;-78
2024/02/14 06:20:29;;;;;;;2.95;2.05;;;;;;;;;;5019670;28;20211;-79
2024/02/14 06:22:57;;;;;;;2.83;2.30;;;;;;;;;;5019886;28;20229;-79
2024/02/14 06:25:26;;;;;;;2.55;2.03;;;;;;;;;;5020187;28;20575;-79
2024/02/14 06:27:55;;;;;;;1.60;1.50;;;;;;;;;;5018697;28;20258;-79
2024/02/14 06:30:22;;;;;;;2.83;2.00;;;;;;;;;;5019791;28;20210;-78
2024/02/14 06:32:50;;;;;;;2.97;2.17;;;;;;;;;;5020361;28;20201;-79
2024/02/14 06:35:18;;;;;;;1.73;1.60;;;;;;;;;;5020791;28;20266;-78
2024/02/14 06:37:46;;;;;;;2.22;1.67;;;;;;;;;;5020537;28;20594;-79
2024/02/14 06:40:14;;;;;;;2.58;1.80;;;;;;;;;;5020179;28;20210;-79
2024/02/14 06:42:43;;;;;;;2.42;2.05;;;;;;;;;;5020204;28;20662;-78
2024/02/14 06:45:10;;;;;;;1.67;1.58;;;;;;;;;;5019846;28;20199;-79
2024/02/14 06:47:38;;;;;;;1.80;1.70;;;;;;;;;;5019438;28;20219;-79
2024/02/14 06:50:08;;;;;;;1.80;1.70;;;;;;;;;;5020393;28;20214;-78
2024/02/14 06:52:35;;;;;;;2.30;2.05;;;;;;;;;;5020896;28;20199;-78
2024/02/14 06:55:03;;;;;;;2.28;2.05;;;;;;;;;;5020954;28;20203;-79
2024/02/14 06:57:31;;;;;;;1.83;1.73;;;;;;;;;;5028163;23;20223;-92
2024/02/14 07:00:00;;;;;;;2.75;2.55;;;;;;;;;;5003294;28;20267;-93
2024/02/14 07:02:28;;;;;;;4.55;1.75;;;;;;;;;;5009634;28;20246;-91
2024/02/14 07:04:55;;;;;;;2.08;1.75;;;;;;;;;;5010272;28;20207;-92
2024/02/14 07:07:23;;;;;;;2.28;1.65;;;;;;;;;;5005985;28;20287;-93
2024/02/14 07:09:51;;;;;;;2.38;2.17;;;;;;;;;;5011543;28;20219;-93
2024/02/14 07:12:19;;;;;;;1.92;1.80;;;;;;;;;;5002571;28;20246;-93
2024/02/14 07:14:47;;;;;;;1.70;1.60;;;;;;;;;;5011675;28;20207;-93
2024/02/14 07:17:16;;;;;;;2.20;2.00;;;;;;;;;;5016339;28;20227;-93
2024/02/14 07:19:47;;;;;;;2.15;1.60;;;;;;;;;;5023890;28;20207;-91
2024/02/14 07:22:15;;;;;;;2.63;1.95;;;;;;;;;;5015553;28;20224;-92
2024/02/14 07:24:45;;;;;;;1.70;1.60;;;;;;;;;;5014625;28;20607;-93
2024/02/14 07:27:14;;;;;;;1.50;1.40;;;;;;;;;;5008936;28;20199;-94
2024/02/14 07:29:42;;;;;;;2.00;1.80;;;;;;;;;;5014766;28;20226;-93
2024/02/14 07:32:10;;;;;;;1.83;1.63;;;;;;;;;;5003115;28;20259;-93
2024/02/14 07:34:40;;;;;;;2.95;1.92;;;;;;;;;;5007913;28;20219;-93
2024/02/14 07:37:08;;;;;;;1.77;1.67;;;;;;;;;;5012918;28;20207;-93
2024/02/14 07:39:35;;;;;;;1.83;1.73;;;;;;;;;;5005629;28;20207;-93
2024/02/14 07:42:04;;;;;;;2.65;2.45;;;;;;;;;;5003279;28;20696;-92
2024/02/14 07:44:31;;;;;;;1.77;1.67;;;;;;;;;;5002222;28;20255;-92
2024/02/14 07:46:59;;;;;;;1.90;1.80;;;;;;;;;;5003407;28;20593;-92
2024/02/14 07:49:27;;;;;;;2.25;2.03;;;;;;;;;;5006804;28;20281;-92
2024/02/14 07:51:56;;;;;;;2.00;1.20;;;;;;;;;;5004555;28;20311;-91
2024/02/14 07:54:23;;;;;;;1.85;1.75;;;;;;;;;;4998297;28;20631;-92
2024/02/14 07:56:51;;;;;;;4.43;1.40;;;;;;;;;;4997853;28;20211;-94
2024/02/14 07:59:20;;;;;;;1.80;1.70;;;;;;;;;;4994401;28;20223;-89
2024/02/14 08:01:47;;;;;;;1.90;1.77;;;;;;;;;;5001215;28;20231;-89
2024/02/14 08:04:15;;;;;;;2.40;1.63;;;;;;;;;;5001996;28;20228;-90
2024/02/14 08:06:43;;;;;;;2.22;1.80;;;;;;;;;;4994778;28;20211;-92
2024/02/14 08:09:13;;;;;;;2.63;2.15;;;;;;;;;;4999740;28;20271;-91
2024/02/14 08:11:40;;;;;;;2.10;1.90;;;;;;;;;;4997771;28;20243;-92
2024/02/14 08:14:08;;;;;;;4.15;2.10;;;;;;;;;;5005938;28;20282;-92
2024/02/14 08:16:36;;;;;;;2.17;1.80;;;;;;;;;;5000103;28;20238;-92
2024/02/14 08:19:04;;;;;;;3.92;2.75;;;;;;;;;;5002411;28;20768;-92
2024/02/14 08:21:31;;;;;;;2.65;1.55;;;;;;;;;;4998721;28;20241;-91
2024/02/14 08:23:59;;;;;;;1.80;1.60;;;;;;;;;;5004401;28;20230;-92
2024/02/14 08:26:28;;;;;;;1.98;1.83;;;;;;;;;;5001914;28;20263;-92
2024/02/14 08:28:56;;;;;;;1.67;1.40;;;;;;;;;;5001271;28;20263;-92
2024/02/14 08:31:23;;;;;;;1.60;1.50;;;;;;;;;;5001072;28;20226;-92
2024/02/14 08:33:51;;;;;;;2.47;1.30;;;;;;;;;;5001129;28;20297;-92
2024/02/14 08:36:19;;;;;;;1.70;1.60;;;;;;;;;;5004640;28;20282;-91
2024/02/14 08:38:46;;;;;;;2.38;1.55;;;;;;;;;;4997224;28;20211;-91
2024/02/14 08:41:14;;;;;;;1.70;1.60;;;;;;;;;;5000611;28;20226;-90
2024/02/14 08:43:43;;;;;;;1.40;1.30;;;;;;;;;;5001076;28;20254;-91
2024/02/14 08:46:12;;;;;;;1.60;1.50;;;;;;;;;;5003580;28;20564;-92
2024/02/14 08:48:45;;;;;;;1.90;1.75;;;;;;;;;;5004444;28;20641;-92
2024/02/14 08:51:13;;;;;;;1.90;1.70;;;;;;;;;;4996248;28;20587;-92
2024/02/14 08:53:42;;;;;;;2.40;1.80;;;;;;;;;;5004192;28;20202;-92
2024/02/14 08:56:10;;;;;;;1.45;1.35;;;;;;;;;;5002194;28;20316;-93
2024/02/14 08:58:38;;;;;;;1.27;1.23;;;;;;;;;;5000905;28;20211;-93
2024/02/14 09:01:08;;;;;;;4.03;1.45;;;;;;;;;;5000787;28;20549;-92
2024/02/14 09:03:36;;;;;;;1.50;1.40;;;;;;;;;;5001028;28;20254;-92
2024/02/14 09:06:04;;;;;;;1.25;1.08;;;;;;;;;;5002446;28;20282;-92
2024/02/14 09:08:32;;;;;;;1.17;1.08;;;;;;;;;;5004531;28;20206;-92
2024/02/14 09:10:59;;;;;;;1.48;1.30;;;;;;;;;;5003319;28;20205;-93
2024/02/14 09:13:28;;;;;;;1.52;1.40;;;;;;;;;;4993343;28;20207;-92
2024/02/14 09:15:56;;;;;;;1.90;1.55;;;;;;;;;;5001720;28;20207;-92
2024/02/14 09:18:25;;;;;;;1.33;1.23;;;;;;;;;;5001623;28;20580;-92
2024/02/14 09:20:53;;;;;;;2.47;2.28;;;;;;;;;;5000825;28;20615;-92
2024/02/14 09:23:22;;;;;;;1.20;1.17;;;;;;;;;;5005174;28;20286;-92
2024/02/14 09:25:50;;;;;;;6.70;1.90;;;;;;;;;;5004390;28;20246;-93
2024/02/14 09:28:17;;;;;;;1.65;1.55;;;;;;;;;;4988344;28;20207;-92
2024/02/14 09:30:45;;;;;;;1.45;1.35;;;;;;;;;;5004219;28;20283;-92
2024/02/14 09:33:13;;;;;;;1.52;1.40;;;;;;;;;;5004008;28;20246;-93
2024/02/14 09:35:44;;;;;;;1.58;1.30;;;;;;;;;;5004759;28;20217;-94
2024/02/14 09:38:12;;;;;;;1.45;1.35;;;;;;;;;;5002092;28;20207;-93
2024/02/14 09:40:40;;;;;;;1.35;1.20;;;;;;;;;;5000906;28;20230;-92
2024/02/14 09:43:17;;;;;;;0.90;0.90;;;;;;;;;;5000511;28;20661;-92
2024/02/14 09:45:46;;;;;;;1.00;1.00;;;;;;;;;;4995390;28;20309;-92
2024/02/14 09:48:14;;;;;;;1.33;1.23;;;;;;;;;;5007562;28;20707;-90
2024/02/14 09:50:43;;;;;;;1.42;1.33;;;;;;;;;;5008400;28;20195;-92
2024/02/14 09:53:11;;;;;;;1.45;1.17;;;;;;;;;;4999823;28;20311;-91
2024/02/14 09:55:40;;;;;;;1.00;1.00;;;;;;;;;;5008056;28;20202;-92
2024/02/14 09:58:08;;;;;;;1.08;1.08;;;;;;;;;;4999687;28;20212;-93
2024/02/14 10:00:36;;;;;;;1.38;1.13;;;;;;;;;;5008235;28;20210;-93
2024/02/14 10:03:08;;;;;;;1.30;1.20;;;;;;;;;;5005512;28;20315;-91
2024/02/14 10:05:36;;;;;;;1.20;1.20;;;;;;;;;;5004213;28;20223;-92
2024/02/14 10:08:05;;;;;;;1.20;1.17;;;;;;;;;;5005685;28;20287;-92
2024/02/14 10:10:35;;;;;;;3.00;1.58;;;;;;;;;;5007467;28;20207;-92
2024/02/14 10:13:06;;;;;;;1.50;1.40;;;;;;;;;;5005814;28;20231;-93
2024/02/14 10:15:33;;;;;;;1.90;1.50;;;;;;;;;;5001858;28;20202;-92
2024/02/14 10:18:03;;;;;;;1.63;1.30;;;;;;;;;;5006364;28;20286;-93
2024/02/14 10:20:33;;;;;;;1.58;1.20;;;;;;;;;;5004430;28;20242;-93
2024/02/14 10:23:06;;;;;;;1.63;1.33;;;;;;;;;;5005405;28;20224;-93
2024/02/14 10:25:37;;;;;;;1.85;1.42;;;;;;;;;;5007114;28;20643;-94
2024/02/14 10:28:08;;;;;;;1.38;1.25;;;;;;;;;;5005893;28;20239;-94
2024/02/14 10:30:37;;;;;;;1.33;1.25;;;;;;;;;;4995821;28;20218;-93
2024/02/14 10:33:07;;;;;;;1.48;1.38;;;;;;;;;;5005474;28;20705;-92
2024/02/14 10:35:34;;;;;;;1.33;1.27;;;;;;;;;;5007324;28;20253;-92
2024/02/14 10:38:06;;;;;;;1.88;1.67;;;;;;;;;;5005470;28;20199;-92
2024/02/14 10:40:34;;;;;;;1.23;1.13;;;;;;;;;;5003453;28;20215;-92
2024/02/14 10:43:02;;;;;;;1.63;1.52;;;;;;;;;;4995044;28;20678;-91
2024/02/14 10:45:30;;;;;;;1.70;1.60;;;;;;;;;;4995715;28;20271;-92
2024/02/14 10:47:59;;;;;;;1.67;1.40;;;;;;;;;;4996913;28;20262;-93
2024/02/14 10:50:30;;;;;;;2.08;1.60;;;;;;;;;;5007348;28;20290;-92
2024/02/14 10:52:59;;;;;;;1.60;1.50;;;;;;;;;;4997951;28;20235;-92
2024/02/14 10:55:31;;;;;;;3.22;1.73;;;;;;;;;;4999323;28;20199;-93
2024/02/14 10:57:59;;;;;;;1.40;1.30;;;;;;;;;;4997772;28;20215;-93
2024/02/14 11:00:27;;;;;;;1.60;1.50;;;;;;;;;;5003670;28;20218;-93
2024/02/14 11:02:55;;;;;;;1.73;1.63;;;;;;;;;;5004784;28;20303;-93
2024/02/14 11:05:23;;;;;;;2.25;2.05;;;;;;;;;;5007556;28;20311;-93
2024/02/14 11:07:52;;;;;;;1.80;1.35;;;;;;;;;;5008254;28;20261;-93
2024/02/14 11:10:22;;;;;;;1.85;1.75;;;;;;;;;;5008231;28;20688;-92
2024/02/14 11:12:51;;;;;;;1.67;1.58;;;;;;;;;;5008921;28;20275;-94
2024/02/14 11:15:20;;;;;;;1.60;1.40;;;;;;;;;;5003299;28;20223;-94
2024/02/14 11:17:51;;;;;;;2.08;1.50;;;;;;;;;;5009176;28;20203;-95
2024/02/14 11:20:21;;;;;;;2.05;1.85;;;;;;;;;;4995651;28;20207;-94
2024/02/14 11:22:56;;;;;;;3.20;2.88;;;;;;;;;;5014172;28;20215;-93
2024/02/14 11:25:35;;;;;;;1.88;1.77;;;;;;;;;;4997163;28;20231;-93
2024/02/14 11:28:15;;;;;;;2.08;1.60;;;;;;;;;;5026826;28;20187;-93
2024/02/14 11:30:43;;;;;;;1.50;1.40;;;;;;;;;;5022430;28;20202;-94
2024/02/14 11:33:19;;;;;;;1.45;1.40;;;;;;;;;;5023338;28;20207;-93
2024/02/14 11:35:49;;;;;;;2.65;1.50;;;;;;;;;;5021780;28;20203;-94
2024/02/14 11:38:17;;;;;;;1.95;1.50;;;;;;;;;;5016193;28;20224;-93
2024/02/14 11:40:45;;;;;;;1.25;1.20;;;;;;;;;;5022162;28;20199;-93
2024/02/14 11:43:18;;;;;;;1.30;1.20;;;;;;;;;;5024423;28;20220;-93
2024/02/14 11:45:49;;;;;;;2.10;1.85;;;;;;;;;;5014044;28;20218;-94
2024/02/14 11:48:18;;;;;;;1.45;1.33;;;;;;;;;;5018969;28;20195;-94
2024/02/14 11:50:47;;;;;;;1.52;1.35;;;;;;;;;;5025318;28;20199;-95
2024/02/14 11:53:18;;;;;;;1.50;1.40;;;;;;;;;;5021805;28;20225;-93
2024/02/14 11:55:46;;;;;;;1.75;1.55;;;;;;;;;;5029116;28;20187;-92
2024/02/14 11:58:17;;;;;;;2.97;1.65;;;;;;;;;;5021869;28;20207;-91
2024/02/14 12:00:46;;;;;;;3.13;1.50;;;;;;;;;;5011935;28;20291;-92
2024/02/14 12:03:16;;;;;;;1.45;1.35;;;;;;;;;;5018548;28;20658;-92
2024/02/14 12:05:43;;;;;;;1.10;1.10;;;;;;;;;;5012714;28;20239;-92
2024/02/14 12:08:11;;;;;;;2.08;1.40;;;;;;;;;;5005244;28;20209;-93
2024/02/14 12:10:39;;;;;;;2.47;1.35;;;;;;;;;;5005629;28;20271;-93
2024/02/14 12:13:09;;;;;;;2.40;1.55;;;;;;;;;;5004639;28;20314;-92
2024/02/14 12:15:47;;;;;;;1.40;1.30;;;;;;;;;;5007250;28;20206;-93
2024/02/14 12:18:17;;;;;;;2.15;1.48;;;;;;;;;;5012656;28;20220;-93
2024/02/14 12:20:45;;;;;;;1.73;1.60;;;;;;;;;;5007107;28;20654;-92
2024/02/14 12:23:17;;;;;;;3.53;1.40;;;;;;;;;;5003030;28;20611;-92
2024/02/14 12:25:46;;;;;;;2.00;1.40;;;;;;;;;;4993507;28;20322;-92
2024/02/14 12:28:16;;;;;;;2.83;2.25;;;;;;;;;;5004282;28;20282;-92
2024/02/14 12:30:49;;;;;;;2.28;2.08;;;;;;;;;;5006336;28;20213;-93
2024/02/14 12:33:17;;;;;;;2.08;1.85;;;;;;;;;;5003060;28;20211;-93
2024/02/14 12:35:47;;;;;;;1.85;1.73;;;;;;;;;;4994358;28;20290;-94
2024/02/14 12:38:17;;;;;;;2.55;1.33;;;;;;;;;;5006736;28;20226;-93
2024/02/14 12:40:46;;;;;;;1.67;1.30;;;;;;;;;;5009512;28;20234;-95
2024/02/14 12:43:15;;;;;;;1.35;1.25;;;;;;;;;;5009209;28;20231;-93
2024/02/14 12:45:46;;;;;;;1.52;1.42;;;;;;;;;;5019126;28;20209;-94
2024/02/14 12:48:26;;;;;;;1.42;1.30;;;;;;;;;;5029366;28;20191;-93
2024/02/14 12:50:56;;;;;;;1.25;1.20;;;;;;;;;;5028076;28;20198;-94
2024/02/14 12:53:24;;;;;;;5.60;1.85;;;;;;;;;;5024950;28;20255;-93
2024/02/14 12:55:52;;;;;;;1.30;1.20;;;;;;;;;;5025302;28;20205;-94
2024/02/14 12:58:20;;;;;;;1.38;1.30;;;;;;;;;;5001088;28;20219;-93
2024/02/14 13:00:50;;;;;;;1.50;1.40;;;;;;;;;;5017991;28;20231;-94
2024/02/14 13:03:18;;;;;;;2.20;1.42;;;;;;;;;;5000144;28;20654;-93
2024/02/14 13:05:47;;;;;;;1.08;0.90;;;;;;;;;;5002854;28;20218;-93
2024/02/14 13:08:16;;;;;;;2.33;1.67;;;;;;;;;;5008338;28;20223;-93
2024/02/14 13:10:44;;;;;;;1.10;1.10;;;;;;;;;;5006999;28;20299;-93
2024/02/14 13:13:12;;;;;;;1.25;1.05;;;;;;;;;;5003661;28;20233;-93
2024/02/14 13:15:40;;;;;;;1.17;1.15;;;;;;;;;;4994959;28;20207;-93
2024/02/14 13:18:09;;;;;;;1.42;1.08;;;;;;;;;;5003323;28;20203;-93
2024/02/14 13:20:38;;;;;;;3.05;1.63;;;;;;;;;;5007521;28;20290;-94
2024/02/14 13:23:09;;;;;;;3.03;1.90;;;;;;;;;;5003187;28;20227;-94
2024/02/14 13:25:39;;;;;;;2.20;1.08;;;;;;;;;;5024664;28;20191;-95
2024/02/14 13:28:07;;;;;;;2.22;2.13;;;;;;;;;;5017529;28;20274;-93
2024/02/14 13:30:34;;;;;;;1.50;1.40;;;;;;;;;;5020508;28;20274;-95
2024/02/14 13:33:02;;;;;;;1.23;1.13;;;;;;;;;;5021244;28;20253;-93
2024/02/14 13:35:37;;;;;;;1.20;1.10;;;;;;;;;;5028976;28;20486;-94
2024/02/14 13:38:05;;;;;;;1.70;1.35;;;;;;;;;;5035304;28;20206;-94
2024/02/14 13:40:33;;;;;;;1.83;1.30;;;;;;;;;;5023928;28;20271;-93
2024/02/14 13:43:01;;;;;;;1.20;1.10;;;;;;;;;;5008282;28;20390;-93
2024/02/14 13:45:32;;;;;;;1.38;1.17;;;;;;;;;;5006075;28;20230;-93
2024/02/14 13:48:07;;;;;;;2.78;1.50;;;;;;;;;;5019671;28;20230;-93
2024/02/14 13:50:37;;;;;;;1.92;1.10;;;;;;;;;;5021144;28;20206;-93
2024/02/14 13:53:06;;;;;;;1.20;1.10;;;;;;;;;;5015323;28;20223;-94
2024/02/14 13:55:34;;;;;;;0.93;0.90;;;;;;;;;;5023634;28;20195;-93
2024/02/14 13:58:02;;;;;;;1.23;1.08;;;;;;;;;;5031124;28;20233;-94
2024/02/14 14:00:29;;;;;;;1.10;1.10;;;;;;;;;;5017863;28;20207;-93
2024/02/14 14:02:57;;;;;;;1.10;1.00;;;;;;;;;;5016318;28;20227;-92
2024/02/14 14:05:25;;;;;;;1.05;1.00;;;;;;;;;;5008399;28;20327;-93
2024/02/14 14:07:54;;;;;;;1.05;1.00;;;;;;;;;;5017684;28;20222;-92
2024/02/14 14:10:25;;;;;;;1.48;1.35;;;;;;;;;;5021578;28;20202;-94
2024/02/14 14:12:53;;;;;;;1.30;1.20;;;;;;;;;;5010580;28;20263;-93
2024/02/14 14:15:21;;;;;;;1.13;1.02;;;;;;;;;;5016013;28;20208;-93
2024/02/14 14:17:49;;;;;;;3.22;1.13;;;;;;;;;;5011342;28;20234;-93
2024/02/14 14:22:58;;;;;;;2.30;1.02;;;;;;;;;;5126328;27;20619;-86
2024/02/14 14:25:27;;;;;;;0.90;0.90;;;;;;;;;;5117089;28;20203;-84
2024/02/14 14:27:55;;;;;;;0.90;0.90;;;;;;;;;;5117567;28;20204;-86
2024/02/14 14:30:22;;;;;;;1.08;1.00;;;;;;;;;;5116125;28;20219;-80
2024/02/14 14:32:50;;;;;;;0.90;0.90;;;;;;;;;;5114407;28;20199;-80
2024/02/14 14:35:17;;;;;;;4.15;1.58;;;;;;;;;;5114310;28;20203;-80
2024/02/14 14:37:45;;;;;;;1.38;1.27;;;;;;;;;;5115391;28;20226;-80
2024/02/14 14:40:14;;;;;;;2.15;1.25;;;;;;;;;;5115034;28;20219;-83
2024/02/14 14:42:40;;;;;;;1.15;1.15;;;;;;;;;;5117304;28;20660;-82
2024/02/14 14:45:08;;;;;;;1.00;1.00;;;;;;;;;;5114725;28;20653;-82
2024/02/14 14:47:37;;;;;;;0.90;0.88;;;;;;;;;;5115549;28;20206;-81
2024/02/14 14:50:07;;;;;;;1.42;1.10;;;;;;;;;;5114986;28;20228;-81
2024/02/14 14:52:34;;;;;;;1.70;1.38;;;;;;;;;;5115566;28;20226;-81